createdAt,value
2019-04-22T00:02:13.188Z,44.25
2019-04-22T00:04:56.130Z,44.27
2019-04-22T00:07:36.229Z,44.31
2019-04-22T00:10:11.599Z,44.27
2019-04-22T00:12:42.365Z,44.45
2019-04-22T00:15:10.068Z,44.51
2019-04-22T00:20:14.731Z,44.55
2019-04-22T00:22:46.492Z,44.39
2019-04-22T00:25:19.773Z,44.55
2019-04-22T00:33:19.140Z,44.54
2019-04-22T00:35:49.790Z,44.79
2019-04-22T00:38:23.783Z,45.21
2019-04-22T00:40:50.967Z,45.01
2019-04-22T00:43:19.645Z,44.96
2019-04-22T00:45:49.196Z,44.72
2019-04-22T00:48:27.553Z,45.08
2019-04-22T00:51:08.768Z,45.15
2019-04-22T00:53:31.313Z,45.15
2019-04-22T00:58:41.187Z,45.06
2019-04-22T01:01:15.749Z,45.01
2019-04-22T01:03:51.107Z,45.17
2019-04-22T01:06:16.256Z,45.20
2019-04-22T01:08:53.011Z,45.26
2019-04-22T01:11:25.180Z,45.43
2019-04-22T01:13:45.577Z,45.19
2019-04-22T01:16:17.075Z,45.23
2019-04-22T01:18:48.797Z,45.21
2019-04-22T01:23:52.194Z,45.17
2019-04-22T01:26:22.931Z,45.25
2019-04-22T01:28:50.066Z,45.33
2019-04-22T01:31:17.966Z,45.59
2019-04-22T01:33:49.748Z,45.71
2019-04-22T01:36:33.914Z,45.55
2019-04-22T01:39:10.726Z,45.69
2019-04-22T01:41:50.367Z,45.57
2019-04-22T01:46:49.619Z,46.08
2019-04-22T01:49:19.727Z,45.44
2019-04-22T01:52:00.056Z,45.48
2019-04-22T01:54:22.312Z,45.57
2019-04-22T01:59:15.797Z,45.08
2019-04-22T02:04:30.363Z,45.12
2019-04-22T02:06:59.156Z,45.15
2019-04-22T02:09:33.117Z,45.06
2019-04-22T02:12:00.206Z,45.12
2019-04-22T02:14:37.364Z,45.08
2019-04-22T02:17:02.614Z,45.38
2019-04-22T02:20:33.041Z,45.32
2019-04-22T02:21:59.643Z,45.12
2019-04-22T02:24:39.872Z,45.06
2019-04-22T02:27:14.123Z,44.90
2019-04-22T02:32:28.237Z,45.47
2019-04-22T02:34:50.422Z,45.47
2019-04-22T02:39:52.790Z,45.49
2019-04-22T02:42:14.268Z,45.49
2019-04-22T02:52:29.384Z,45.99
2019-04-22T02:55:03.043Z,45.85
2019-04-22T03:02:54.660Z,46.01
2019-04-22T03:05:00.601Z,45.73
2019-04-22T03:07:54.198Z,45.71
2019-04-22T03:10:15.473Z,45.76
2019-04-22T03:12:29.241Z,45.82
2019-04-22T03:15:00.034Z,46.27
2019-04-22T03:17:41.417Z,46.15
2019-04-22T03:20:09.399Z,46.04
2019-04-22T03:22:40.893Z,45.78
2019-04-22T03:25:43.790Z,45.74
2019-04-22T03:30:45.448Z,46.03
2019-04-22T03:37:56.029Z,45.84
2019-04-22T03:40:30.788Z,46.40
2019-04-22T03:50:25.386Z,46.56
2019-04-22T03:53:06.240Z,46.95
2019-04-22T04:03:06.414Z,46.32
2019-04-22T04:08:22.295Z,47.08
2019-04-22T04:10:40.117Z,47.17
2019-04-22T04:13:10.075Z,47.05
2019-04-22T04:15:34.285Z,47.21
2019-04-22T04:18:13.412Z,46.63
2019-04-22T04:20:54.489Z,46.97
2019-04-22T04:23:18.974Z,47.60
2019-04-22T04:25:52.615Z,46.79
2019-04-22T04:28:29.459Z,46.75
2019-04-22T04:30:40.072Z,46.01
2019-04-22T04:33:24.957Z,46.08
2019-04-22T04:38:21.100Z,45.84
2019-04-22T04:40:48.727Z,45.73
2019-04-22T04:43:26.088Z,45.55
2019-04-22T04:48:36.331Z,45.41
2019-04-22T04:51:11.266Z,45.24
2019-04-22T04:56:02.894Z,44.59
2019-04-22T05:01:20.977Z,44.76
2019-04-22T05:06:09.247Z,44.39
2019-04-22T05:11:37.257Z,43.88
2019-04-22T05:13:54.327Z,43.55
2019-04-22T05:18:45.844Z,43.41
2019-04-22T05:21:13.637Z,43.41
2019-04-22T05:26:16.604Z,42.94
2019-04-22T05:28:42.330Z,42.98
2019-04-22T05:31:16.282Z,42.75
2019-04-22T05:33:42.476Z,42.59
2019-04-22T05:36:13.037Z,42.26
2019-04-22T05:38:50.143Z,41.87
2019-04-22T05:41:16.259Z,41.68
2019-04-22T05:43:50.202Z,41.54
2019-04-22T05:46:19.850Z,41.25
2019-04-22T05:48:56.580Z,41.17
2019-04-22T05:51:25.659Z,40.82
2019-04-22T05:53:58.437Z,40.83
2019-04-22T05:56:34.766Z,40.64
2019-04-22T05:58:59.910Z,40.69
2019-04-22T06:01:38.917Z,40.57
2019-04-22T06:06:44.963Z,40.33
2019-04-22T06:09:05.225Z,40.07
2019-04-22T06:11:33.895Z,39.96
2019-04-22T06:14:07.631Z,39.05
2019-04-22T06:16:44.315Z,39.11
2019-04-22T06:19:14.069Z,39.25
2019-04-22T06:21:42.827Z,38.70
2019-04-22T06:24:27.437Z,38.68
2019-04-22T06:29:19.610Z,38.29
2019-04-22T06:32:11.701Z,37.80
2019-04-22T06:34:26.527Z,37.47
2019-04-22T06:37:01.900Z,36.58
2019-04-22T06:39:30.274Z,36.97
2019-04-22T06:42:06.912Z,35.56
2019-04-22T06:44:29.746Z,35.49
2019-04-22T06:47:00.588Z,34.37
2019-04-22T06:49:35.901Z,34.32
2019-04-22T06:52:12.884Z,33.43
2019-04-22T06:54:32.906Z,33.45
2019-04-22T06:57:06.215Z,33.47
2019-04-22T06:59:36.269Z,33.35
2019-04-22T07:02:11.635Z,32.16
2019-04-22T07:04:47.711Z,30.72
2019-04-22T07:07:12.795Z,27.83
2019-04-22T07:12:20.712Z,23.42
2019-04-22T07:14:48.710Z,22.69
2019-04-22T07:17:15.590Z,22.30
2019-04-22T07:19:45.275Z,21.84
2019-04-22T07:24:55.922Z,20.90
2019-04-22T07:27:25.293Z,19.87
2019-04-22T07:29:55.650Z,20.00
2019-04-22T07:32:58.717Z,19.66
2019-04-22T07:35:01.155Z,18.76
2019-04-22T07:39:56.245Z,17.26
2019-04-22T07:42:32.714Z,16.52
2019-04-22T07:47:40.950Z,16.67
2019-04-22T07:50:09.559Z,16.26
2019-04-22T07:52:35.261Z,16.42
2019-04-22T07:55:00.969Z,16.36
2019-04-22T08:00:13.833Z,16.14
2019-04-22T08:02:44.312Z,15.82
2019-04-22T08:07:43.559Z,16.33
2019-04-22T08:12:46.813Z,15.75
2019-04-22T08:15:12.526Z,15.21
2019-04-22T08:20:16.699Z,14.71
2019-04-22T08:22:56.082Z,15.11
2019-04-22T08:25:20.895Z,14.87
2019-04-22T08:27:50.795Z,14.41
2019-04-22T08:30:28.840Z,14.46
2019-04-22T08:32:53.241Z,14.48
2019-04-22T08:38:02.557Z,14.76
2019-04-22T08:40:40.405Z,14.35
2019-04-22T08:43:13.955Z,13.91
2019-04-22T08:45:40.126Z,14.00
2019-04-22T08:48:01.035Z,13.61
2019-04-22T08:50:41.324Z,13.40
2019-04-22T08:53:21.366Z,12.84
2019-04-22T08:55:48.816Z,13.25
2019-04-22T09:00:54.203Z,13.13
2019-04-22T09:03:20.658Z,13.17
2019-04-22T09:05:59.747Z,13.70
2019-04-22T09:08:21.793Z,14.03
2019-04-22T09:10:50.098Z,13.88
2019-04-22T09:13:22.127Z,13.89
2019-04-22T09:15:55.531Z,13.46
2019-04-22T09:18:32.957Z,13.89
2019-04-22T09:21:08.740Z,13.41
2019-04-22T09:23:30.204Z,13.50
2019-04-22T09:25:55.897Z,13.34
2019-04-22T09:28:32.682Z,13.42
2019-04-22T09:31:01.735Z,13.58
2019-04-22T09:33:34.924Z,13.56
2019-04-22T09:36:12.735Z,13.65
2019-04-22T09:38:37.605Z,13.87
2019-04-22T09:41:10.431Z,13.73
2019-04-22T09:43:42.802Z,14.17
2019-04-22T09:46:06.568Z,14.54
2019-04-22T09:48:43.547Z,14.65
2019-04-22T09:51:15.018Z,14.22
2019-04-22T09:56:17.621Z,14.52
2019-04-22T09:58:49.462Z,14.86
2019-04-22T10:01:24.552Z,15.37
2019-04-22T10:03:56.305Z,15.59
2019-04-22T10:06:33.784Z,15.42
2019-04-22T10:09:25.930Z,15.52
2019-04-22T10:11:26.781Z,15.65
2019-04-22T10:16:32.557Z,16.60
2019-04-22T10:18:58.781Z,16.75
2019-04-22T10:21:35.572Z,16.83
2019-04-22T10:26:33.389Z,17.09
2019-04-22T10:29:09.122Z,17.46
2019-04-22T10:31:36.903Z,17.46
2019-04-22T10:33:53.190Z,17.40
2019-04-22T10:36:10.314Z,17.55
2019-04-22T10:38:40.328Z,17.98
2019-04-22T10:41:10.431Z,17.98
2019-04-22T10:43:41.215Z,18.23
2019-04-22T10:46:12.152Z,18.02
2019-04-22T10:48:42.149Z,18.19
2019-04-22T10:51:12.692Z,18.38
2019-04-22T10:53:43.709Z,18.57
2019-04-22T10:56:14.760Z,18.85
2019-04-22T10:58:44.655Z,19.39
2019-04-22T11:01:15.756Z,19.74
2019-04-22T11:03:45.765Z,19.54
2019-04-22T11:06:15.339Z,19.72
2019-04-22T11:08:52.313Z,19.94
2019-04-22T11:11:30.096Z,20.25
2019-04-22T11:13:47.801Z,20.09
2019-04-22T11:16:17.535Z,19.83
2019-04-22T11:18:47.595Z,20.39
2019-04-22T11:21:17.919Z,20.68
2019-04-22T11:23:47.792Z,21.11
2019-04-22T11:26:17.773Z,21.15
2019-04-22T11:28:47.679Z,21.15
2019-04-22T11:31:20.610Z,20.96
2019-04-22T11:33:48.632Z,20.94
2019-04-22T11:36:18.097Z,21.15
2019-04-22T11:38:54.046Z,21.29
2019-04-22T11:41:19.659Z,21.39
2019-04-22T11:43:49.518Z,20.97
2019-04-22T11:46:19.315Z,21.03
2019-04-22T11:48:49.897Z,21.21
2019-04-22T11:51:19.989Z,21.15
2019-04-22T11:53:52.705Z,21.14
2019-04-22T11:56:22.958Z,21.46
2019-04-22T11:58:55.279Z,21.38
2019-04-22T12:01:26.659Z,21.13
2019-04-22T12:03:58.149Z,20.79
2019-04-22T12:06:28.669Z,20.90
2019-04-22T12:08:59.608Z,20.90
2019-04-22T12:11:32.344Z,20.69
2019-04-22T12:14:04.330Z,20.79
2019-04-22T12:16:35.074Z,20.81
2019-04-22T12:19:05.089Z,20.89
2019-04-22T12:21:37.096Z,20.74
2019-04-22T12:24:09.092Z,20.95
2019-04-22T12:26:39.974Z,20.82
2019-04-22T12:29:11.069Z,21.04
2019-04-22T12:31:42.004Z,20.97
2019-04-22T12:34:13.300Z,20.22
2019-04-22T12:36:44.833Z,20.18
2019-04-22T12:39:18.004Z,20.23
2019-04-22T12:41:50.107Z,20.23
2019-04-22T12:44:24.308Z,19.96
2019-04-22T12:46:57.357Z,20.02
2019-04-22T12:49:29.894Z,20.00
2019-04-22T12:52:00.993Z,19.84
2019-04-22T12:54:31.265Z,20.07
2019-04-22T12:57:02.164Z,19.86
2019-04-22T12:59:31.968Z,19.55
2019-04-22T13:02:03.005Z,19.82
2019-04-22T13:07:03.935Z,19.33
2019-04-22T13:09:34.906Z,19.40
2019-04-22T13:12:06.890Z,19.55
2019-04-22T13:14:38.963Z,19.31
2019-04-22T13:17:10.217Z,19.34
2019-04-22T13:19:42.392Z,19.51
2019-04-22T13:22:14.644Z,19.08
2019-04-22T13:24:46.044Z,19.25
2019-04-22T13:27:17.239Z,19.19
2019-04-22T13:29:51.113Z,19.36
2019-04-22T13:32:20.841Z,19.09
2019-04-22T13:34:55.150Z,18.41
2019-04-22T13:37:23.121Z,19.51
2019-04-22T13:39:52.969Z,19.41
2019-04-22T13:42:24.063Z,19.45
2019-04-22T13:44:58.108Z,19.41
2019-04-22T13:47:42.359Z,19.22
2019-04-22T13:50:32.927Z,19.07
2019-04-22T13:55:36.701Z,19.66
2019-04-22T13:57:53.674Z,19.57
2019-04-22T14:00:10.294Z,19.59
2019-04-22T14:02:55.004Z,19.53
2019-04-22T14:05:26.920Z,19.82
2019-04-22T14:07:57.556Z,20.08
2019-04-22T14:10:30.214Z,20.08
2019-04-22T14:13:01.643Z,19.94
2019-04-22T14:15:31.945Z,20.01
2019-04-22T14:18:03.038Z,20.29
2019-04-22T14:20:36.810Z,20.32
2019-04-22T14:23:09.752Z,19.70
2019-04-22T14:25:40.874Z,19.70
2019-04-22T14:28:16.930Z,20.03
2019-04-22T14:30:44.304Z,20.03
2019-04-22T14:33:14.124Z,20.36
2019-04-22T14:35:44.057Z,20.33
2019-04-22T14:38:14.201Z,20.51
2019-04-22T14:40:45.474Z,20.75
2019-04-22T14:43:42.624Z,20.69
2019-04-22T14:46:15.443Z,20.55
2019-04-22T14:48:45.892Z,20.64
2019-04-22T14:51:07.613Z,20.84
2019-04-22T14:53:43.347Z,21.11
2019-04-22T14:56:00.251Z,21.31
2019-04-22T14:58:31.259Z,21.31
2019-04-22T15:01:01.231Z,21.48
2019-04-22T15:03:31.515Z,21.82
2019-04-22T15:06:02.205Z,21.85
2019-04-22T15:08:32.900Z,21.89
2019-04-22T15:11:05.830Z,22.05
2019-04-22T15:13:33.771Z,22.61
2019-04-22T15:16:25.893Z,22.18
2019-04-22T15:19:15.815Z,22.21
2019-04-22T15:21:46.967Z,21.80
2019-04-22T15:24:25.140Z,22.07
2019-04-22T15:26:58.730Z,21.97
2019-04-22T15:29:29.633Z,22.00
2019-04-22T15:31:59.894Z,21.70
2019-04-22T15:34:30.583Z,21.42
2019-04-22T15:37:00.240Z,21.14
2019-04-22T15:39:29.593Z,20.96
2019-04-22T15:42:09.535Z,20.97
2019-04-22T15:44:30.627Z,20.73
2019-04-22T15:47:02.719Z,20.76
2019-04-22T15:49:33.929Z,20.78
2019-04-22T15:52:05.719Z,21.00
2019-04-22T15:54:34.696Z,21.10
2019-04-22T15:57:04.767Z,21.22
2019-04-22T15:59:48.971Z,21.37
2019-04-22T16:02:06.569Z,21.33
2019-04-22T16:04:36.893Z,21.16
2019-04-22T16:07:08.594Z,20.93
2019-04-22T16:09:39.445Z,21.13
2019-04-22T16:12:19.388Z,21.02
2019-04-22T16:14:47.905Z,21.01
2019-04-22T16:17:14.810Z,21.23
2019-04-22T16:19:45.175Z,21.32
2019-04-22T16:22:19.123Z,21.29
2019-04-22T16:25:11.161Z,21.31
2019-04-22T16:27:42.705Z,21.35
2019-04-22T16:30:13.217Z,21.56
2019-04-22T16:32:43.551Z,21.24
2019-04-22T16:35:14.576Z,21.44
2019-04-22T16:37:44.143Z,21.64
2019-04-22T16:40:16.604Z,21.63
2019-04-22T16:42:53.589Z,21.76
2019-04-22T16:45:19.879Z,21.90
2019-04-22T16:47:51.479Z,21.84
2019-04-22T16:50:21.240Z,22.18
2019-04-22T16:52:52.377Z,22.22
2019-04-22T16:55:24.849Z,22.70
2019-04-22T16:57:56.654Z,22.79
2019-04-22T17:00:27.041Z,22.87
2019-04-22T17:03:18.472Z,23.17
2019-04-22T17:06:08.002Z,23.40
2019-04-22T17:08:39.072Z,23.61
2019-04-22T17:11:09.934Z,23.60
2019-04-22T17:13:42.435Z,23.81
2019-04-22T17:16:13.963Z,24.13
2019-04-22T17:18:46.746Z,24.27
2019-04-22T17:21:17.632Z,24.44
2019-04-22T17:23:51.771Z,24.56
2019-04-22T17:26:24.173Z,24.60
2019-04-22T17:28:55.401Z,24.77
2019-04-22T17:31:29.040Z,24.72
2019-04-22T17:33:59.009Z,25.03
2019-04-22T17:36:29.859Z,25.33
2019-04-22T17:39:15.780Z,25.59
2019-04-22T17:41:51.160Z,25.81
2019-04-22T17:44:41.446Z,26.02
2019-04-22T17:47:32.975Z,26.32
2019-04-22T17:50:17.124Z,26.60
2019-04-22T17:52:59.589Z,26.80
2019-04-22T17:55:24.236Z,26.87
2019-04-22T17:57:40.896Z,27.04
2019-04-22T18:00:18.649Z,27.18
2019-04-22T18:02:46.011Z,27.45
2019-04-22T18:05:08.072Z,29.05
2019-04-22T18:07:55.515Z,29.38
2019-04-22T18:10:32.506Z,29.94
2019-04-22T18:13:07.448Z,30.55
2019-04-22T18:15:40.674Z,30.62
2019-04-22T18:18:12.431Z,31.27
2019-04-22T18:20:33.561Z,31.58
2019-04-22T18:23:00.312Z,31.74
2019-04-22T18:25:36.325Z,31.85
2019-04-22T18:28:18.715Z,31.73
2019-04-22T18:30:37.419Z,32.31
2019-04-22T18:33:20.809Z,32.32
2019-04-22T18:35:51.581Z,32.86
2019-04-22T18:38:31.425Z,32.71
2019-04-22T18:40:54.752Z,32.98
2019-04-22T18:43:31.332Z,33.23
2019-04-22T18:46:05.363Z,33.22
2019-04-22T18:48:31.762Z,33.51
2019-04-22T18:51:20.794Z,33.74
2019-04-22T18:54:16.258Z,33.89
2019-04-22T18:56:41.898Z,33.98
2019-04-22T18:59:09.630Z,34.16
2019-04-22T19:01:30.108Z,34.55
2019-04-22T19:04:08.970Z,34.90
2019-04-22T19:06:56.349Z,35.12
2019-04-22T19:09:29.588Z,34.85
2019-04-22T19:12:08.816Z,35.19
2019-04-22T19:14:33.397Z,35.52
2019-04-22T19:17:09.818Z,35.75
2019-04-22T19:19:33.337Z,36.05
2019-04-22T19:22:02.279Z,36.18
2019-04-22T19:24:29.089Z,36.41
2019-04-22T19:27:23.275Z,36.55
2019-04-22T19:29:44.774Z,36.50
2019-04-22T19:32:08.452Z,36.62
2019-04-22T19:34:42.803Z,36.75
2019-04-22T19:37:19.161Z,36.75
2019-04-22T19:40:01.791Z,36.92
2019-04-22T19:42:31.027Z,36.90
2019-04-22T19:44:55.068Z,37.12
2019-04-22T19:47:30.318Z,36.98
2019-04-22T19:50:09.029Z,36.97
2019-04-22T19:52:35.309Z,36.69
2019-04-22T19:55:10.307Z,36.43
2019-04-22T19:57:34.526Z,35.70
2019-04-22T20:00:05.101Z,35.40
2019-04-22T20:03:03.559Z,34.40
2019-04-22T20:05:43.810Z,34.21
2019-04-22T20:08:14.502Z,33.96
2019-04-22T20:10:45.959Z,34.02
2019-04-22T20:13:27.045Z,33.83
2019-04-22T20:15:43.321Z,33.74
2019-04-22T20:20:59.692Z,33.50
2019-04-22T20:23:23.084Z,33.73
2019-04-22T20:25:56.260Z,33.64
2019-04-22T20:28:37.843Z,33.78
2019-04-22T20:31:04.038Z,33.72
2019-04-22T20:33:48.067Z,33.62
2019-04-22T20:36:12.575Z,33.87
2019-04-22T20:38:43.856Z,33.82
2019-04-22T20:41:08.948Z,33.83
2019-04-22T20:43:46.751Z,33.93
2019-04-22T20:46:20.320Z,34.07
2019-04-22T20:48:56.850Z,34.12
2019-04-22T20:51:26.385Z,34.25
2019-04-22T20:53:57.813Z,34.44
2019-04-22T20:56:25.148Z,34.50
2019-04-22T20:58:57.197Z,34.48
2019-04-22T21:01:28.564Z,34.51
2019-04-22T21:03:48.919Z,34.56
2019-04-22T21:06:33.527Z,34.59
2019-04-22T21:09:07.083Z,34.66
2019-04-22T21:11:34.547Z,34.65
2019-04-22T21:14:05.872Z,34.75
2019-04-22T21:16:46.130Z,34.98
2019-04-22T21:19:18.646Z,35.01
2019-04-22T21:21:46.602Z,35.12
2019-04-22T21:24:09.242Z,35.30
2019-04-22T21:26:45.336Z,35.27
2019-04-22T21:29:13.323Z,35.40
2019-04-22T21:31:51.297Z,35.47
2019-04-22T21:34:20.264Z,35.53
2019-04-22T21:37:06.200Z,35.67
2019-04-22T21:39:29.302Z,35.73
2019-04-22T21:42:03.386Z,36.03
2019-04-22T21:44:32.355Z,36.24
2019-04-22T21:47:13.066Z,36.39
2019-04-22T21:49:35.605Z,36.42
2019-04-22T21:52:13.546Z,36.60
2019-04-22T21:54:46.738Z,36.73
2019-04-22T21:59:59.531Z,37.12
2019-04-22T22:02:35.390Z,37.30
2019-04-22T22:04:58.681Z,37.61
2019-04-22T22:07:17.272Z,37.58
2019-04-22T22:10:01.119Z,37.66
2019-04-22T22:12:39.732Z,37.69
2019-04-22T22:15:06.901Z,37.92
2019-04-22T22:17:38.007Z,38.08
2019-04-22T22:20:06.129Z,38.15
2019-04-22T22:22:55.009Z,38.09
2019-04-22T22:25:18.286Z,38.11
2019-04-22T22:27:44.744Z,38.43
2019-04-22T22:30:37.327Z,38.45
2019-04-22T22:32:47.789Z,38.85
2019-04-22T22:35:20.477Z,39.02
2019-04-22T22:37:50.196Z,39.24
2019-04-22T22:40:10.698Z,39.29
2019-04-22T22:42:43.835Z,39.51
2019-04-22T22:45:21.513Z,39.79
2019-04-22T22:48:11.420Z,40.13
2019-04-22T22:50:36.027Z,40.21
2019-04-22T22:53:18.335Z,40.33
2019-04-22T22:55:37.388Z,40.41
2019-04-22T22:58:11.428Z,40.76
2019-04-22T23:00:39.452Z,41.09
2019-04-22T23:05:50.429Z,41.45
2019-04-22T23:08:25.740Z,41.68
2019-04-22T23:11:03.516Z,41.97
2019-04-22T23:13:25.869Z,42.25
2019-04-22T23:15:50.663Z,42.63
2019-04-22T23:18:07.894Z,42.73
2019-04-22T23:20:43.292Z,42.68
2019-04-22T23:23:26.779Z,42.83
2019-04-22T23:25:59.656Z,42.91
2019-04-22T23:28:45.427Z,43.34
2019-04-22T23:31:21.050Z,43.36
2019-04-22T23:34:02.915Z,43.47
2019-04-22T23:36:49.841Z,43.58
2019-04-22T23:39:22.743Z,43.40
2019-04-22T23:42:19.080Z,43.40
2019-04-22T23:44:33.897Z,44.02
2019-04-22T23:47:05.467Z,44.01
2019-04-22T23:49:32.484Z,44.38
2019-04-22T23:52:14.712Z,44.27
2019-04-22T23:54:50.918Z,44.50
2019-04-22T23:57:29.791Z,44.43
2019-04-22T23:59:55.969Z,44.46
